Time;durP1;ratioP1;P1;durP2;ratioP2;P2;SDS_P1;SDS_P2;PMS_P1;PMS_P2;Temp;Humidity;BMP_temperature;BMP_pressure;BME280_temperature;BME280_humidity;BME280_pressure;Samples;Min_cycle;Max_cycle;Signal;HPM_P1;HPM_P2
2022/08/31 00:05:04;;;;;;;32.50;5.15;;;;;;;;;;4950520;28;20099;-65
2022/08/31 00:07:33;;;;;;;17.65;4.10;;;;;;;;;;4950904;28;20061;-66
2022/08/31 00:10:02;;;;;;;23.33;4.80;;;;;;;;;;4951180;28;20536;-65
2022/08/31 00:12:29;;;;;;;32.40;6.35;;;;;;;;;;4944176;28;20046;-65
2022/08/31 00:14:56;;;;;;;22.67;5.22;;;;;;;;;;4900756;29;20044;-64
2022/08/31 00:17:22;;;;;;;19.17;4.97;;;;;;;;;;4948394;28;20063;-64
2022/08/31 00:19:49;;;;;;;29.95;6.10;;;;;;;;;;4950053;28;20032;-63
2022/08/31 00:22:15;;;;;;;22.50;5.95;;;;;;;;;;4950824;29;20051;-63
2022/08/31 00:24:42;;;;;;;23.67;5.97;;;;;;;;;;4950952;28;20452;-65
2022/08/31 00:27:09;;;;;;;46.28;7.68;;;;;;;;;;4953329;29;20093;-65
2022/08/31 00:29:35;;;;;;;18.77;5.50;;;;;;;;;;4951884;28;20515;-65
2022/08/31 00:32:02;;;;;;;19.50;5.45;;;;;;;;;;4946580;28;20063;-65
2022/08/31 00:34:29;;;;;;;33.97;7.40;;;;;;;;;;4918361;29;20047;-66
2022/08/31 00:36:56;;;;;;;25.17;6.43;;;;;;;;;;4921359;29;20078;-66
2022/08/31 00:39:22;;;;;;;27.80;7.10;;;;;;;;;;4919433;29;20091;-66
2022/08/31 00:41:50;;;;;;;42.60;8.15;;;;;;;;;;4952801;29;20049;-66
2022/08/31 00:44:16;;;;;;;25.42;6.57;;;;;;;;;;4949511;28;20043;-65
2022/08/31 00:46:43;;;;;;;29.10;7.30;;;;;;;;;;4949709;28;20074;-65
2022/08/31 00:49:16;;;;;;;33.10;7.57;;;;;;;;;;4949425;29;20055;-65
2022/08/31 00:51:46;;;;;;;25.60;7.25;;;;;;;;;;4932858;29;20051;-65
2022/08/31 00:54:13;;;;;;;26.15;7.32;;;;;;;;;;4935820;29;20162;-66
2022/08/31 00:56:43;;;;;;;35.38;8.05;;;;;;;;;;4902142;29;20059;-65
2022/08/31 00:59:11;;;;;;;27.13;7.05;;;;;;;;;;4902444;29;20091;-66
2022/08/31 01:01:38;;;;;;;26.45;8.43;;;;;;;;;;4902483;29;20454;-65
2022/08/31 01:04:05;;;;;;;25.17;8.00;;;;;;;;;;4902466;29;20409;-65
2022/08/31 01:06:32;;;;;;;35.78;9.15;;;;;;;;;;4901637;29;20039;-65
2022/08/31 01:09:00;;;;;;;30.75;9.00;;;;;;;;;;4942385;28;20051;-65
2022/08/31 01:11:29;;;;;;;22.83;8.57;;;;;;;;;;4902514;29;20048;-65
2022/08/31 01:13:56;;;;;;;28.55;9.98;;;;;;;;;;4940311;29;20154;-63
2022/08/31 01:16:29;;;;;;;36.75;11.60;;;;;;;;;;4948799;29;20095;-64
2022/08/31 01:18:56;;;;;;;33.13;11.02;;;;;;;;;;4931355;29;20051;-64
2022/08/31 01:21:25;;;;;;;41.53;12.82;;;;;;;;;;4950624;28;20047;-63
2022/08/31 01:23:53;;;;;;;42.58;13.02;;;;;;;;;;4952288;28;20134;-65
2022/08/31 01:26:22;;;;;;;39.97;12.38;;;;;;;;;;4922038;29;20511;-66
2022/08/31 01:28:49;;;;;;;30.52;11.07;;;;;;;;;;4943015;28;20102;-65
2022/08/31 01:31:19;;;;;;;45.83;12.73;;;;;;;;;;4923324;29;20048;-65
2022/08/31 01:33:46;;;;;;;34.92;12.30;;;;;;;;;;4922493;29;20050;-65
2022/08/31 01:36:14;;;;;;;40.92;13.18;;;;;;;;;;4939920;29;20046;-63
2022/08/31 01:38:42;;;;;;;38.42;13.52;;;;;;;;;;4950962;28;20547;-63
2022/08/31 01:41:08;;;;;;;39.13;13.93;;;;;;;;;;4948789;28;20043;-64
2022/08/31 01:43:38;;;;;;;34.08;13.20;;;;;;;;;;4915068;29;20070;-64
2022/08/31 01:46:09;;;;;;;46.00;14.25;;;;;;;;;;4886295;29;20104;-64
2022/08/31 01:48:37;;;;;;;33.00;13.23;;;;;;;;;;4918711;29;20107;-65
2022/08/31 01:51:08;;;;;;;39.88;13.02;;;;;;;;;;4920397;29;20071;-65
2022/08/31 01:53:39;;;;;;;40.05;13.63;;;;;;;;;;4920437;29;20083;-62
2022/08/31 01:56:12;;;;;;;40.13;13.07;;;;;;;;;;4919665;29;20035;-62
2022/08/31 01:58:39;;;;;;;38.88;13.60;;;;;;;;;;4907574;29;20155;-61
2022/08/31 02:01:25;;;;;;;41.72;12.93;;;;;;;;;;4913643;29;20556;-61
2022/08/31 02:04:01;;;;;;;40.85;13.05;;;;;;;;;;4931164;28;20522;-62
2022/08/31 02:06:27;;;;;;;32.95;11.25;;;;;;;;;;4949771;28;20130;-62
2022/08/31 02:08:54;;;;;;;39.03;13.73;;;;;;;;;;4940892;28;20521;-63
2022/08/31 02:11:21;;;;;;;54.33;13.00;;;;;;;;;;4911356;29;20058;-63
2022/08/31 02:13:47;;;;;;;22.75;10.68;;;;;;;;;;4943259;29;20075;-64
2022/08/31 02:16:14;;;;;;;33.40;11.68;;;;;;;;;;4948647;28;20027;-62
2022/08/31 02:18:41;;;;;;;45.58;12.23;;;;;;;;;;4930286;29;20621;-63
2022/08/31 02:21:12;;;;;;;28.05;12.25;;;;;;;;;;4920266;29;20106;-62
2022/08/31 02:23:40;;;;;;;29.45;11.65;;;;;;;;;;4900550;29;20048;-62
2022/08/31 02:26:06;;;;;;;29.88;11.88;;;;;;;;;;4941969;29;20558;-62
2022/08/31 02:28:33;;;;;;;39.40;12.48;;;;;;;;;;4915493;29;20063;-62
2022/08/31 02:31:00;;;;;;;35.88;13.40;;;;;;;;;;4930402;29;20606;-62
2022/08/31 02:33:29;;;;;;;40.28;14.57;;;;;;;;;;4916711;29;20075;-62
2022/08/31 02:35:57;;;;;;;28.77;13.00;;;;;;;;;;4908563;29;20449;-62
2022/08/31 02:38:26;;;;;;;43.25;14.65;;;;;;;;;;4929856;29;20134;-62
2022/08/31 02:40:52;;;;;;;49.50;15.73;;;;;;;;;;4912367;29;20083;-62
2022/08/31 02:43:19;;;;;;;37.78;14.98;;;;;;;;;;4927212;29;20575;-62
2022/08/31 02:45:52;;;;;;;56.67;15.80;;;;;;;;;;4929338;29;20161;-62
2022/08/31 02:48:24;;;;;;;51.05;15.70;;;;;;;;;;4932026;29;20047;-62
2022/08/31 02:50:51;;;;;;;47.03;16.23;;;;;;;;;;4898622;29;20044;-61
2022/08/31 02:53:19;;;;;;;56.65;17.42;;;;;;;;;;4923719;29;20071;-61
2022/08/31 02:55:45;;;;;;;51.25;16.65;;;;;;;;;;4900320;29;20044;-61
2022/08/31 02:58:13;;;;;;;44.45;16.83;;;;;;;;;;4926513;29;20079;-64
2022/08/31 03:00:42;;;;;;;56.55;17.33;;;;;;;;;;4930636;29;20044;-62
2022/08/31 03:03:09;;;;;;;42.63;16.30;;;;;;;;;;4917850;29;20595;-62
2022/08/31 03:05:36;;;;;;;46.42;17.27;;;;;;;;;;4945588;29;20035;-62
2022/08/31 03:08:02;;;;;;;57.42;18.33;;;;;;;;;;4942441;29;20047;-62
2022/08/31 03:10:29;;;;;;;46.95;17.17;;;;;;;;;;4929093;29;20047;-61
2022/08/31 03:12:56;;;;;;;57.08;18.50;;;;;;;;;;4946341;29;20107;-60
2022/08/31 03:15:23;;;;;;;61.58;18.40;;;;;;;;;;4915966;29;20134;-62
2022/08/31 03:17:51;;;;;;;34.50;15.15;;;;;;;;;;4950738;29;20062;-62
2022/08/31 03:20:20;;;;;;;36.22;15.27;;;;;;;;;;4947886;29;20062;-61
2022/08/31 03:22:47;;;;;;;50.50;17.33;;;;;;;;;;4947806;28;20090;-63
2022/08/31 03:25:16;;;;;;;31.23;15.18;;;;;;;;;;4922514;29;20055;-63
2022/08/31 03:27:43;;;;;;;36.80;16.35;;;;;;;;;;4929833;29;20517;-64
2022/08/31 03:30:11;;;;;;;49.03;16.95;;;;;;;;;;4919865;29;20070;-63
2022/08/31 03:32:41;;;;;;;38.17;14.80;;;;;;;;;;4911375;29;20051;-62
2022/08/31 03:35:08;;;;;;;34.38;15.02;;;;;;;;;;4944259;29;20082;-61
2022/08/31 03:37:36;;;;;;;41.15;14.43;;;;;;;;;;4931184;29;20416;-62
2022/08/31 03:40:03;;;;;;;46.00;16.38;;;;;;;;;;4910836;29;20070;-64
2022/08/31 03:42:31;;;;;;;40.58;15.02;;;;;;;;;;4951491;29;20118;-64
2022/08/31 03:44:58;;;;;;;46.78;16.25;;;;;;;;;;4901619;29;20040;-64
2022/08/31 03:47:28;;;;;;;29.42;15.23;;;;;;;;;;4904602;29;20056;-64
2022/08/31 03:49:56;;;;;;;55.03;15.75;;;;;;;;;;4904198;29;20603;-64
2022/08/31 03:52:27;;;;;;;40.65;15.85;;;;;;;;;;4909250;29;20139;-64
2022/08/31 03:55:10;;;;;;;36.58;16.33;;;;;;;;;;4925800;29;20048;-64
2022/08/31 03:57:38;;;;;;;39.78;15.45;;;;;;;;;;4918511;29;20048;-64
2022/08/31 04:00:06;;;;;;;35.80;14.93;;;;;;;;;;4904476;29;20056;-64
2022/08/31 04:02:38;;;;;;;53.53;15.85;;;;;;;;;;4952235;29;20051;-64
2022/08/31 04:05:27;;;;;;;48.40;15.23;;;;;;;;;;4951001;29;20058;-64
2022/08/31 04:08:12;;;;;;;31.17;13.80;;;;;;;;;;4948433;29;20054;-64
2022/08/31 04:10:45;;;;;;;38.03;14.30;;;;;;;;;;4951143;29;20046;-64
2022/08/31 04:13:50;;;;;;;34.20;12.93;;;;;;;;;;4873058;29;20406;-64
2022/08/31 04:16:43;;;;;;;26.35;11.82;;;;;;;;;;4863613;29;20049;-64
2022/08/31 04:19:28;;;;;;;74.45;14.45;;;;;;;;;;4880831;29;20132;-65
2022/08/31 04:22:12;;;;;;;31.02;10.15;;;;;;;;;;4865036;29;20049;-64
2022/08/31 04:24:51;;;;;;;44.83;11.70;;;;;;;;;;4865473;29;20051;-64
2022/08/31 04:27:18;;;;;;;44.28;10.52;;;;;;;;;;4877896;29;20045;-64
2022/08/31 04:29:45;;;;;;;18.48;7.63;;;;;;;;;;4866497;29;20049;-64
2022/08/31 04:32:12;;;;;;;29.95;8.60;;;;;;;;;;4870903;29;20064;-65
2022/08/31 04:34:38;;;;;;;31.27;7.85;;;;;;;;;;4895090;29;20053;-65
2022/08/31 04:37:07;;;;;;;44.28;7.82;;;;;;;;;;4895053;29;20032;-65
2022/08/31 04:39:35;;;;;;;59.20;9.43;;;;;;;;;;4879334;29;20064;-63
2022/08/31 04:42:16;;;;;;;32.50;5.80;;;;;;;;;;4892292;29;20071;-66
2022/08/31 04:44:42;;;;;;;30.73;6.18;;;;;;;;;;4897015;29;20107;-65
2022/08/31 04:47:09;;;;;;;11.50;4.25;;;;;;;;;;4939458;29;20123;-66
2022/08/31 04:49:35;;;;;;;18.75;4.40;;;;;;;;;;4945687;28;20040;-65
2022/08/31 04:52:02;;;;;;;23.30;4.53;;;;;;;;;;4948768;28;20050;-65
2022/08/31 04:54:29;;;;;;;72.95;5.53;;;;;;;;;;4934768;29;20824;-65
2022/08/31 04:56:57;;;;;;;29.95;4.60;;;;;;;;;;4936540;29;20527;-65
2022/08/31 04:59:29;;;;;;;37.35;4.78;;;;;;;;;;4932606;29;20126;-66
2022/08/31 05:02:14;;;;;;;34.90;4.07;;;;;;;;;;4928557;29;20053;-66
2022/08/31 05:04:47;;;;;;;44.33;5.72;;;;;;;;;;4926348;29;20456;-66
2022/08/31 05:07:14;;;;;;;26.13;3.30;;;;;;;;;;4935674;28;20059;-66
2022/08/31 05:09:42;;;;;;;26.05;4.07;;;;;;;;;;4930452;29;20044;-66
2022/08/31 05:12:08;;;;;;;29.95;4.10;;;;;;;;;;4953831;28;20074;-66
2022/08/31 05:14:35;;;;;;;16.85;2.90;;;;;;;;;;4927439;29;20047;-66
2022/08/31 05:17:11;;;;;;;38.10;3.72;;;;;;;;;;4924411;29;20051;-66
2022/08/31 05:19:40;;;;;;;24.98;3.58;;;;;;;;;;4921248;29;20553;-66
2022/08/31 05:22:07;;;;;;;18.02;3.08;;;;;;;;;;4949593;28;20047;-62
2022/08/31 05:24:37;;;;;;;31.80;3.92;;;;;;;;;;4933628;28;20050;-64
2022/08/31 05:27:04;;;;;;;23.15;3.53;;;;;;;;;;4950919;28;21467;-68
2022/08/31 05:29:31;;;;;;;25.08;3.78;;;;;;;;;;4935479;29;20043;-68
2022/08/31 05:32:27;;;;;;;13.90;2.28;;;;;;;;;;4947053;28;20051;-68
2022/08/31 05:34:56;;;;;;;43.97;4.38;;;;;;;;;;4928576;29;20051;-68
2022/08/31 05:37:25;;;;;;;29.92;4.13;;;;;;;;;;4946576;28;20044;-69
2022/08/31 05:39:52;;;;;;;18.85;2.47;;;;;;;;;;4947972;28;20036;-70
2022/08/31 05:42:19;;;;;;;30.50;3.78;;;;;;;;;;4935516;28;20099;-70
2022/08/31 05:44:46;;;;;;;31.00;3.75;;;;;;;;;;4925999;29;20051;-70
2022/08/31 05:47:14;;;;;;;14.35;2.90;;;;;;;;;;4940671;28;20058;-71
2022/08/31 05:49:42;;;;;;;28.40;3.47;;;;;;;;;;4937666;28;20044;-70
2022/08/31 05:52:12;;;;;;;22.77;3.03;;;;;;;;;;4920210;29;20035;-70
2022/08/31 05:54:40;;;;;;;32.17;4.18;;;;;;;;;;4950281;28;20126;-71
2022/08/31 05:57:07;;;;;;;35.72;3.90;;;;;;;;;;4934235;29;20511;-70
2022/08/31 05:59:34;;;;;;;38.90;4.60;;;;;;;;;;4935347;29;20059;-70
2022/08/31 06:02:01;;;;;;;16.50;2.95;;;;;;;;;;4931672;29;20091;-70
2022/08/31 06:04:31;;;;;;;24.65;3.60;;;;;;;;;;4931611;29;20047;-70
2022/08/31 06:06:58;;;;;;;39.42;3.88;;;;;;;;;;4931721;29;20515;-70
2022/08/31 06:09:32;;;;;;;35.17;3.88;;;;;;;;;;4950108;28;20510;-70
2022/08/31 06:12:00;;;;;;;38.00;4.82;;;;;;;;;;4915359;29;20147;-70
2022/08/31 06:14:26;;;;;;;23.58;3.63;;;;;;;;;;4919076;29;20055;-70
2022/08/31 06:16:55;;;;;;;37.75;4.60;;;;;;;;;;4918440;29;20052;-69
2022/08/31 06:19:22;;;;;;;321.98;21.98;;;;;;;;;;4935297;28;20094;-69
2022/08/31 06:21:50;;;;;;;21.25;3.45;;;;;;;;;;4948102;28;20119;-70
2022/08/31 06:24:21;;;;;;;38.00;4.93;;;;;;;;;;4934733;28;20062;-71
2022/08/31 06:26:54;;;;;;;41.45;4.95;;;;;;;;;;4937493;28;20050;-70
2022/08/31 06:29:30;;;;;;;18.73;2.85;;;;;;;;;;4935663;29;20058;-69
2022/08/31 06:31:59;;;;;;;41.13;5.40;;;;;;;;;;4936621;28;20038;-69
2022/08/31 06:34:27;;;;;;;23.38;3.60;;;;;;;;;;4939932;28;20051;-71
2022/08/31 06:37:04;;;;;;;15.05;2.80;;;;;;;;;;4950603;28;20039;-70
2022/08/31 06:39:41;;;;;;;14.30;2.38;;;;;;;;;;4919638;29;20560;-70
2022/08/31 06:42:22;;;;;;;33.72;4.38;;;;;;;;;;4934424;29;20378;-70
2022/08/31 06:44:57;;;;;;;25.17;3.53;;;;;;;;;;4951844;29;20046;-70
2022/08/31 06:47:47;;;;;;;23.48;3.13;;;;;;;;;;4892645;29;20433;-69
2022/08/31 06:50:16;;;;;;;29.63;2.92;;;;;;;;;;4884741;29;20053;-70
2022/08/31 06:52:44;;;;;;;27.60;3.10;;;;;;;;;;4876689;29;20736;-69
2022/08/31 06:55:21;;;;;;;24.92;3.05;;;;;;;;;;4876163;29;20075;-69
2022/08/31 06:58:06;;;;;;;17.40;2.58;;;;;;;;;;4891748;29;20052;-71
2022/08/31 07:01:06;;;;;;;28.63;3.58;;;;;;;;;;4867614;29;20061;-70
2022/08/31 07:03:51;;;;;;;19.33;2.97;;;;;;;;;;4872086;29;20498;-70
2022/08/31 07:06:19;;;;;;;26.77;3.30;;;;;;;;;;4876261;29;20052;-71
2022/08/31 07:08:48;;;;;;;32.67;4.13;;;;;;;;;;4879362;29;20116;-70
2022/08/31 07:11:16;;;;;;;18.52;2.53;;;;;;;;;;4891356;29;20048;-71
2022/08/31 07:13:43;;;;;;;67.88;5.68;;;;;;;;;;4885472;29;20041;-70
2022/08/31 07:16:11;;;;;;;41.95;4.63;;;;;;;;;;4882569;29;20077;-70
2022/08/31 07:18:39;;;;;;;16.60;2.60;;;;;;;;;;4878228;29;20076;-69
2022/08/31 07:21:09;;;;;;;546.30;38.53;;;;;;;;;;4877097;29;20037;-70
2022/08/31 07:23:36;;;;;;;207.85;14.52;;;;;;;;;;4875088;29;20056;-69
2022/08/31 07:26:11;;;;;;;29.75;3.50;;;;;;;;;;4892806;29;20045;-70
2022/08/31 07:28:42;;;;;;;28.50;3.30;;;;;;;;;;4877125;29;20843;-69
2022/08/31 07:31:11;;;;;;;20.17;2.58;;;;;;;;;;4892932;29;20049;-69
2022/08/31 07:33:40;;;;;;;36.97;4.05;;;;;;;;;;4885328;29;20085;-69
2022/08/31 07:36:08;;;;;;;25.77;3.35;;;;;;;;;;4886677;29;20056;-68
2022/08/31 07:44:30;;;;;;;55.72;4.70;;;;;;;;;;4907271;29;20460;-68
2022/08/31 07:46:57;;;;;;;8.82;1.63;;;;;;;;;;4907629;29;20036;-68
2022/08/31 07:49:25;;;;;;;41.38;4.30;;;;;;;;;;4928384;29;20468;-68
2022/08/31 07:52:05;;;;;;;31.33;3.63;;;;;;;;;;4924226;29;20040;-68
2022/08/31 07:55:06;;;;;;;34.00;3.58;;;;;;;;;;4936921;29;20495;-68
2022/08/31 07:57:54;;;;;;;26.67;2.95;;;;;;;;;;4937389;29;20487;-67
2022/08/31 08:00:23;;;;;;;47.58;4.78;;;;;;;;;;4908405;29;20044;-68
2022/08/31 08:02:50;;;;;;;21.27;2.45;;;;;;;;;;4906249;29;20076;-68
2022/08/31 08:05:23;;;;;;;18.38;2.17;;;;;;;;;;4930695;29;20044;-68
2022/08/31 08:08:33;;;;;;;15.43;2.03;;;;;;;;;;4923669;29;20052;-67
2022/08/31 08:11:43;;;;;;;21.08;2.38;;;;;;;;;;4926744;29;20043;-68
2022/08/31 08:14:26;;;;;;;14.27;1.88;;;;;;;;;;4921352;29;20055;-68
2022/08/31 08:17:13;;;;;;;47.75;4.95;;;;;;;;;;4926469;28;20055;-68
2022/08/31 08:19:50;;;;;;;24.08;2.42;;;;;;;;;;4944116;29;20039;-67
2022/08/31 08:22:17;;;;;;;37.67;3.63;;;;;;;;;;4933144;29;20504;-68
2022/08/31 08:25:26;;;;;;;22.05;2.60;;;;;;;;;;4912782;29;20044;-68
2022/08/31 08:28:03;;;;;;;22.98;2.40;;;;;;;;;;4910760;29;20060;-67
2022/08/31 08:30:53;;;;;;;36.20;3.85;;;;;;;;;;4900143;29;20052;-68
2022/08/31 08:33:23;;;;;;;36.00;4.05;;;;;;;;;;4914101;29;20474;-68
2022/08/31 08:35:57;;;;;;;38.08;3.75;;;;;;;;;;4905085;29;20051;-68
2022/08/31 08:38:25;;;;;;;26.63;2.70;;;;;;;;;;4898602;29;20086;-68
2022/08/31 08:40:53;;;;;;;30.30;3.03;;;;;;;;;;4910049;29;20045;-67
2022/08/31 08:43:29;;;;;;;27.45;2.92;;;;;;;;;;4902697;29;20051;-67
2022/08/31 08:45:57;;;;;;;8.82;1.25;;;;;;;;;;4901403;29;20513;-67
2022/08/31 08:48:42;;;;;;;40.70;4.13;;;;;;;;;;4912079;29;20157;-68
2022/08/31 08:51:12;;;;;;;21.45;2.38;;;;;;;;;;4897566;29;20151;-67
2022/08/31 08:53:51;;;;;;;30.60;3.17;;;;;;;;;;4912295;29;20105;-67
2022/08/31 08:56:21;;;;;;;28.02;2.58;;;;;;;;;;4912245;29;20677;-68
2022/08/31 08:58:59;;;;;;;15.10;2.00;;;;;;;;;;4888503;29;20059;-65
2022/08/31 09:01:34;;;;;;;61.25;5.63;;;;;;;;;;4914668;29;20133;-65
2022/08/31 09:04:11;;;;;;;26.73;2.78;;;;;;;;;;4932868;29;20058;-65
2022/08/31 09:07:21;;;;;;;9.05;1.48;;;;;;;;;;4935824;28;20051;-67
2022/08/31 09:10:07;;;;;;;32.80;3.33;;;;;;;;;;4918112;29;20400;-67
2022/08/31 09:12:43;;;;;;;31.38;3.30;;;;;;;;;;4919992;28;20039;-67
2022/08/31 09:15:34;;;;;;;38.38;3.85;;;;;;;;;;4940165;28;20128;-66
2022/08/31 09:18:09;;;;;;;24.13;3.28;;;;;;;;;;4951471;28;20078;-67
2022/08/31 09:20:35;;;;;;;18.48;3.42;;;;;;;;;;4935839;29;20118;-61
2022/08/31 09:23:06;;;;;;;15.50;2.05;;;;;;;;;;4925876;29;20147;-61
2022/08/31 09:25:38;;;;;;;28.17;3.70;;;;;;;;;;4925275;29;20079;-61
2022/08/31 09:28:15;;;;;;;13.57;2.13;;;;;;;;;;4926152;29;20298;-61
2022/08/31 09:30:44;;;;;;;15.30;2.25;;;;;;;;;;4953343;29;20076;-66
2022/08/31 09:33:15;;;;;;;60.65;5.30;;;;;;;;;;4948442;29;20488;-65
2022/08/31 09:35:42;;;;;;;20.52;2.75;;;;;;;;;;4948180;29;20065;-63
2022/08/31 09:38:15;;;;;;;27.23;3.17;;;;;;;;;;4945051;28;20070;-66
2022/08/31 09:40:41;;;;;;;37.50;4.40;;;;;;;;;;4940823;28;20047;-66
2022/08/31 09:43:24;;;;;;;22.55;3.00;;;;;;;;;;4942709;29;20039;-73
2022/08/31 09:46:00;;;;;;;29.95;3.65;;;;;;;;;;4950973;29;20050;-75
2022/08/31 09:49:05;;;;;;;53.78;5.55;;;;;;;;;;4949470;28;20131;-71
2022/08/31 09:51:34;;;;;;;71.18;6.65;;;;;;;;;;4874316;29;20534;-71
2022/08/31 09:56:54;;;;;;;45.08;4.55;;;;;;;;;;4880266;29;20115;-70
2022/08/31 09:59:36;;;;;;;28.73;3.58;;;;;;;;;;4875408;29;20053;-71
2022/08/31 10:02:10;;;;;;;23.48;2.85;;;;;;;;;;4885931;29;20077;-72
2022/08/31 10:04:46;;;;;;;33.75;3.80;;;;;;;;;;4883483;29;20094;-72
2022/08/31 10:07:23;;;;;;;11.77;1.88;;;;;;;;;;4884494;29;20079;-70
2022/08/31 10:09:53;;;;;;;42.55;3.83;;;;;;;;;;4868417;29;20140;-71
2022/08/31 10:12:23;;;;;;;;;;;;;;;;;;4883293;29;20418;-79
2022/08/31 10:14:53;;;;;;;137.68;11.45;;;;;;;;;;4891575;29;19927;-73
2022/08/31 10:17:27;;;;;;;64.63;5.93;;;;;;;;;;4888709;29;20060;-74
2022/08/31 10:20:17;;;;;;;72.82;6.03;;;;;;;;;;4875247;29;20510;-70
2022/08/31 10:22:55;;;;;;;39.80;4.70;;;;;;;;;;4910179;29;20535;-74
2022/08/31 10:25:35;;;;;;;24.60;2.58;;;;;;;;;;4941442;29;20051;-75
2022/08/31 10:28:14;;;;;;;23.75;2.63;;;;;;;;;;4949116;28;20043;-72
2022/08/31 10:30:51;;;;;;;60.45;5.18;;;;;;;;;;4946080;28;20366;-70
2022/08/31 10:33:23;;;;;;;26.58;2.80;;;;;;;;;;4947547;28;20047;-75
2022/08/31 10:35:59;;;;;;;34.95;3.53;;;;;;;;;;4948410;29;20075;-71
2022/08/31 10:38:34;;;;;;;75.75;6.22;;;;;;;;;;4938024;29;20056;-72
2022/08/31 10:41:08;;;;;;;17.13;2.38;;;;;;;;;;4923820;29;20047;-73
2022/08/31 10:43:56;;;;;;;26.42;2.95;;;;;;;;;;4944688;29;20136;-75
2022/08/31 10:46:23;;;;;;;18.10;2.20;;;;;;;;;;4936723;29;20040;-72
2022/08/31 10:48:53;;;;;;;22.35;2.60;;;;;;;;;;4937053;28;20032;-70
2022/08/31 10:51:21;;;;;;;18.10;2.35;;;;;;;;;;4934358;29;20504;-68
2022/08/31 10:53:51;;;;;;;21.77;2.45;;;;;;;;;;4946361;29;20061;-70
2022/08/31 10:56:20;;;;;;;32.95;3.35;;;;;;;;;;4951024;28;20047;-68
2022/08/31 10:58:49;;;;;;;25.52;2.13;;;;;;;;;;4946672;28;20102;-69
2022/08/31 11:01:18;;;;;;;44.67;4.07;;;;;;;;;;4947187;28;20036;-73
2022/08/31 11:03:57;;;;;;;268.55;18.25;;;;;;;;;;4936798;29;20123;-73
2022/08/31 11:06:37;;;;;;;47.55;4.03;;;;;;;;;;4943280;28;20492;-76
2022/08/31 11:09:06;;;;;;;9.10;1.35;;;;;;;;;;4937761;29;20492;-75
2022/08/31 11:11:40;;;;;;;25.33;2.70;;;;;;;;;;4950749;28;20050;-76
2022/08/31 11:14:13;;;;;;;15.55;1.80;;;;;;;;;;4940785;29;20048;-73
2022/08/31 11:16:59;;;;;;;41.65;3.58;;;;;;;;;;4936763;29;20079;-73
2022/08/31 11:19:41;;;;;;;28.77;2.92;;;;;;;;;;4937122;29;20056;-70
2022/08/31 11:22:17;;;;;;;30.80;3.40;;;;;;;;;;4946379;28;20100;-61
2022/08/31 11:25:12;;;;;;;23.33;2.67;;;;;;;;;;4951340;28;20488;-71
2022/08/31 11:27:44;;;;;;;17.80;2.38;;;;;;;;;;4949628;28;20057;-70
2022/08/31 11:30:30;;;;;;;26.75;2.72;;;;;;;;;;4947709;29;20130;-75
2022/08/31 11:32:59;;;;;;;33.58;3.50;;;;;;;;;;4941196;29;20039;-66
2022/08/31 11:35:45;;;;;;;28.23;2.92;;;;;;;;;;4943888;28;20067;-62
2022/08/31 11:38:32;;;;;;;73.32;5.57;;;;;;;;;;4949041;28;20051;-65
2022/08/31 11:40:59;;;;;;;523.47;39.90;;;;;;;;;;4940247;28;20134;-63
2022/08/31 11:43:32;;;;;;;49.00;4.85;;;;;;;;;;4934437;28;20140;-64
2022/08/31 11:46:22;;;;;;;23.80;2.72;;;;;;;;;;4934671;28;20039;-63
2022/08/31 11:48:55;;;;;;;33.13;3.35;;;;;;;;;;4931331;29;20134;-63
2022/08/31 11:51:43;;;;;;;37.17;3.63;;;;;;;;;;4931255;29;20059;-69
2022/08/31 11:54:10;;;;;;;30.27;3.22;;;;;;;;;;4938631;28;20467;-66
2022/08/31 11:56:38;;;;;;;12.98;1.65;;;;;;;;;;4939832;28;20143;-66
2022/08/31 11:59:18;;;;;;;29.67;2.92;;;;;;;;;;4937831;28;20044;-69
2022/08/31 12:01:45;;;;;;;27.38;2.80;;;;;;;;;;4939218;28;20047;-68
2022/08/31 12:04:45;;;;;;;22.50;2.67;;;;;;;;;;4961204;28;20066;-70
2022/08/31 12:07:17;;;;;;;15.48;1.83;;;;;;;;;;4950516;28;20044;-69
2022/08/31 12:09:53;;;;;;;33.00;3.28;;;;;;;;;;4952288;28;20035;-68
2022/08/31 12:12:31;;;;;;;60.95;4.32;;;;;;;;;;4939028;28;20075;-68
2022/08/31 12:14:58;;;;;;;31.63;3.03;;;;;;;;;;4937329;29;20139;-69
2022/08/31 12:17:29;;;;;;;10.35;1.33;;;;;;;;;;4939142;28;20052;-70
2022/08/31 12:20:07;;;;;;;88.22;7.50;;;;;;;;;;4937578;28;20412;-68
2022/08/31 12:26:03;;;;;;;20.73;2.40;;;;;;;;;;4928043;29;20248;-66
2022/08/31 12:28:38;;;;;;;53.45;4.88;;;;;;;;;;4923764;29;20044;-67
2022/08/31 12:31:08;;;;;;;25.77;2.80;;;;;;;;;;4951868;29;20122;-65
2022/08/31 12:33:35;;;;;;;42.17;4.22;;;;;;;;;;4949593;29;20039;-66
2022/08/31 12:36:11;;;;;;;40.47;3.50;;;;;;;;;;4947628;28;20559;-63
2022/08/31 12:38:37;;;;;;;17.05;2.15;;;;;;;;;;4950358;28;20066;-65
2022/08/31 12:41:04;;;;;;;79.65;5.80;;;;;;;;;;4943793;28;20031;-65
2022/08/31 12:43:50;;;;;;;29.63;3.20;;;;;;;;;;4938580;28;20131;-66
2022/08/31 12:46:32;;;;;;;34.42;3.22;;;;;;;;;;4926029;29;20051;-65
2022/08/31 12:49:08;;;;;;;13.27;1.75;;;;;;;;;;4936182;29;20087;-65
2022/08/31 12:51:55;;;;;;;26.95;2.95;;;;;;;;;;4936911;29;20079;-66
2022/08/31 12:54:35;;;;;;;25.25;2.85;;;;;;;;;;4939452;28;20050;-66
2022/08/31 12:57:28;;;;;;;36.03;3.63;;;;;;;;;;4919493;29;20558;-65
2022/08/31 13:00:07;;;;;;;30.23;2.93;;;;;;;;;;4911697;29;20067;-65
2022/08/31 13:02:40;;;;;;;25.92;2.83;;;;;;;;;;4882799;29;20296;-65
2022/08/31 13:05:19;;;;;;;23.40;2.58;;;;;;;;;;4903547;29;20203;-65
2022/08/31 13:07:46;;;;;;;36.95;3.80;;;;;;;;;;4909064;29;20048;-65
2022/08/31 13:10:14;;;;;;;22.80;2.05;;;;;;;;;;4909975;29;20510;-65
2022/08/31 13:12:51;;;;;;;28.23;3.13;;;;;;;;;;4897056;29;20040;-65
2022/08/31 13:15:25;;;;;;;15.68;1.60;;;;;;;;;;4897537;29;20099;-65
2022/08/31 13:17:52;;;;;;;43.53;4.30;;;;;;;;;;4901272;29;20419;-65
2022/08/31 13:20:19;;;;;;;33.35;3.47;;;;;;;;;;4890444;29;20056;-65
2022/08/31 13:22:54;;;;;;;26.40;3.22;;;;;;;;;;4908963;29;20044;-65
2022/08/31 13:25:35;;;;;;;55.13;4.25;;;;;;;;;;4909068;29;20057;-65
2022/08/31 13:28:06;;;;;;;12.40;1.75;;;;;;;;;;4911153;29;20084;-65
2022/08/31 13:30:37;;;;;;;29.88;3.20;;;;;;;;;;4910390;29;20068;-65
2022/08/31 13:33:25;;;;;;;35.13;3.60;;;;;;;;;;4908879;29;20044;-66
2022/08/31 13:35:55;;;;;;;43.53;4.38;;;;;;;;;;4914266;29;20060;-64
2022/08/31 13:38:39;;;;;;;31.67;2.92;;;;;;;;;;4952041;28;20107;-64
2022/08/31 13:41:07;;;;;;;113.32;7.82;;;;;;;;;;4937481;28;20091;-64
2022/08/31 13:43:33;;;;;;;63.78;4.70;;;;;;;;;;4937014;28;20043;-64
2022/08/31 13:46:03;;;;;;;94.70;7.03;;;;;;;;;;4937581;28;20039;-64
2022/08/31 13:48:34;;;;;;;38.95;3.75;;;;;;;;;;4935529;28;20514;-64
2022/08/31 13:51:05;;;;;;;27.00;2.90;;;;;;;;;;4946633;28;20050;-66
2022/08/31 13:53:35;;;;;;;35.58;3.78;;;;;;;;;;4939111;29;20047;-65
2022/08/31 13:56:53;;;;;;;18.70;2.22;;;;;;;;;;4944822;28;20131;-64
2022/08/31 13:59:22;;;;;;;38.00;3.80;;;;;;;;;;4937470;28;20043;-63
2022/08/31 14:01:52;;;;;;;42.17;4.38;;;;;;;;;;4937339;28;20043;-64
2022/08/31 14:07:15;;;;;;;21.50;2.80;;;;;;;;;;4950117;29;20040;-64
2022/08/31 14:09:46;;;;;;;40.67;4.00;;;;;;;;;;4936159;28;20038;-61
2022/08/31 14:12:33;;;;;;;12.75;1.83;;;;;;;;;;4952662;28;20043;-65
2022/08/31 14:15:07;;;;;;;16.20;2.15;;;;;;;;;;4934835;29;20044;-62
2022/08/31 14:17:38;;;;;;;55.97;5.30;;;;;;;;;;4941719;28;20059;-63
2022/08/31 14:20:24;;;;;;;36.22;3.88;;;;;;;;;;4934351;29;20039;-63
2022/08/31 14:22:50;;;;;;;12.45;1.58;;;;;;;;;;4944048;28;20126;-63
2022/08/31 14:25:18;;;;;;;37.50;3.95;;;;;;;;;;4948100;28;20040;-63
2022/08/31 14:27:45;;;;;;;30.25;3.33;;;;;;;;;;4936777;28;20449;-63
2022/08/31 14:30:12;;;;;;;36.92;3.30;;;;;;;;;;4933779;29;20044;-64
2022/08/31 14:32:44;;;;;;;28.17;3.13;;;;;;;;;;4944030;29;20499;-63
2022/08/31 14:35:11;;;;;;;25.92;2.35;;;;;;;;;;4945800;29;20047;-65
2022/08/31 14:37:42;;;;;;;31.20;3.42;;;;;;;;;;4943883;28;20138;-66
2022/08/31 14:40:11;;;;;;;50.55;4.82;;;;;;;;;;4936677;28;20457;-63
2022/08/31 14:42:38;;;;;;;28.75;2.90;;;;;;;;;;4935137;28;20110;-64
2022/08/31 14:45:08;;;;;;;37.55;3.60;;;;;;;;;;4934033;29;20044;-64
2022/08/31 14:47:38;;;;;;;44.10;4.22;;;;;;;;;;4946095;29;20510;-64
2022/08/31 14:50:05;;;;;;;26.90;3.10;;;;;;;;;;4936392;28;20057;-61
2022/08/31 14:52:33;;;;;;;37.78;3.83;;;;;;;;;;4946779;28;20122;-62
2022/08/31 14:55:01;;;;;;;31.67;3.40;;;;;;;;;;4935986;28;20052;-62
2022/08/31 14:57:29;;;;;;;28.90;3.08;;;;;;;;;;4933393;29;20488;-65
2022/08/31 14:59:58;;;;;;;34.85;3.50;;;;;;;;;;4934889;28;20050;-64
2022/08/31 15:02:26;;;;;;;27.65;2.70;;;;;;;;;;4937048;28;20489;-64
2022/08/31 15:04:57;;;;;;;35.50;3.80;;;;;;;;;;4936023;28;20129;-63
2022/08/31 15:07:24;;;;;;;41.35;3.88;;;;;;;;;;4936227;28;20050;-63
2022/08/31 15:09:50;;;;;;;41.22;4.07;;;;;;;;;;4936517;29;20035;-63
2022/08/31 15:12:18;;;;;;;29.75;2.97;;;;;;;;;;4932934;29;20130;-62
2022/08/31 15:14:45;;;;;;;74.45;6.43;;;;;;;;;;4936389;29;20113;-63
2022/08/31 15:17:13;;;;;;;20.77;2.28;;;;;;;;;;4936197;28;20511;-63